Time;durP1;ratioP1;P1;durP2;ratioP2;P2;SDS_P1;SDS_P2;PMS_P1;PMS_P2;Temp;Humidity;BMP_temperature;BMP_pressure;BME280_temperature;BME280_humidity;BME280_pressure;Samples;Min_cycle;Max_cycle;Signal;HPM_P1;HPM_P2
2024/01/19 00:01:22;;;;;;;;;0.00;0.00;;;;;-0.53;100.00;101487.69;4962085;28;45344;-86
2024/01/19 00:03:48;;;;;;;;;0.00;0.00;;;;;-0.55;100.00;101490.19;4962463;28;46275;-87
2024/01/19 00:06:15;;;;;;;;;0.00;0.00;;;;;-0.55;100.00;101492.75;4961647;28;45330;-86
2024/01/19 00:08:41;;;;;;;;;0.75;0.75;;;;;-0.63;100.00;101484.00;4979445;28;45271;-87
2024/01/19 00:11:12;;;;;;;;;0.00;0.00;;;;;-0.65;100.00;101485.63;4961499;28;45258;-86
2024/01/19 00:13:37;;;;;;;;;0.00;0.00;;;;;-0.62;100.00;101493.41;4961434;28;45367;-87
2024/01/19 00:16:03;;;;;;;;;0.00;0.00;;;;;-0.68;100.00;101488.13;4961881;28;45404;-87
2024/01/19 00:18:29;;;;;;;;;0.00;0.00;;;;;-0.67;100.00;101494.94;4961961;28;45439;-87
2024/01/19 00:20:54;;;;;;;;;0.00;0.00;;;;;-0.62;100.00;101493.41;4958373;28;45396;-85
2024/01/19 00:23:27;;;;;;;;;0.00;0.00;;;;;-0.59;100.00;101509.69;4958302;28;47859;-86
2024/01/19 00:26:02;;;;;;;;;0.00;0.00;;;;;-0.67;100.00;101497.50;4957869;28;45429;-86
2024/01/19 00:28:28;;;;;;;;;0.00;0.00;;;;;-0.67;100.00;101510.28;4958581;28;45748;-86
2024/01/19 00:30:53;;;;;;;;;0.00;0.00;;;;;-0.64;100.00;101513.81;4959308;28;45581;-86
2024/01/19 00:33:19;;;;;;;;;0.00;0.00;;;;;-0.75;100.00;101504.94;4958414;28;45334;-85
2024/01/19 00:35:44;;;;;;;;;0.00;0.00;;;;;-0.73;100.00;101516.09;4941860;28;45356;-86
2024/01/19 00:38:09;;;;;;;;;0.00;0.00;;;;;-0.68;100.00;101524.78;4958533;28;45463;-86
2024/01/19 00:40:45;;;;;;;;;0.00;0.00;;;;;-0.74;100.00;101527.16;4959084;28;45385;-87
2024/01/19 00:43:10;;;;;;;;;0.00;0.00;;;;;-0.75;100.00;101527.97;4943136;28;48179;-87
2024/01/19 00:45:38;;;;;;;;;0.00;0.00;;;;;-0.86;100.00;101522.50;4959323;28;45355;-87
2024/01/19 00:48:06;;;;;;;;;0.00;0.00;;;;;-0.80;100.00;101534.63;4959123;28;45385;-86
2024/01/19 00:50:36;;;;;;;;;0.00;0.00;;;;;-0.89;100.00;101522.44;4964367;28;45363;-86
2024/01/19 00:53:04;;;;;;;;;1.50;1.50;;;;;-0.78;100.00;101553.41;4964550;28;47134;-86
2024/01/19 00:55:37;;;;;;;;;2.75;2.75;;;;;-0.83;100.00;101543.06;4997810;28;45370;-86
2024/01/19 00:58:09;;;;;;;;;0.00;0.00;;;;;-0.80;100.00;101537.16;4980863;28;45243;-86
2024/01/19 01:00:35;;;;;;;;;0.00;0.00;;;;;-0.72;100.00;101545.97;4965521;28;45339;-87
2024/01/19 01:03:03;;;;;;;;;0.00;0.00;;;;;-0.90;100.00;101517.28;4964527;28;47087;-87
2024/01/19 01:05:30;;;;;;;;;0.00;0.00;;;;;-0.87;100.00;101525.91;4981080;28;45396;-87
2024/01/19 01:07:56;;;;;;;;;0.00;0.00;;;;;-0.83;100.00;101543.06;4998371;28;45304;-86
2024/01/19 01:10:21;;;;;;;;;0.00;0.00;;;;;-0.86;100.00;101545.53;4963802;28;45748;-87
2024/01/19 01:12:50;;;;;;;;;0.00;0.00;;;;;-0.89;100.00;101544.56;4980546;28;48242;-87
2024/01/19 01:15:17;;;;;;;;;0.00;0.00;;;;;-0.98;100.00;101543.47;4964256;28;45744;-87
2024/01/19 01:17:52;;;;;;;;;0.00;0.00;;;;;-1.03;100.00;101537.34;4997671;28;45364;-87
2024/01/19 01:20:22;;;;;;;;;0.00;0.00;;;;;-0.83;100.00;101573.75;4987777;28;45633;-86
2024/01/19 01:22:47;;;;;;;;;4.00;4.00;;;;;-0.85;100.00;101566.88;4979721;28;48107;-86
2024/01/19 01:25:15;;;;;;;;;0.00;0.00;;;;;-1.02;100.00;101546.75;4963937;28;45265;-86
2024/01/19 01:27:40;;;;;;;;;0.00;0.00;;;;;-0.91;100.00;101576.88;4964066;28;45254;-86
2024/01/19 01:30:16;;;;;;;;;0.00;0.00;;;;;-0.97;100.00;101569.88;4963984;28;45206;-86
2024/01/19 01:32:41;;;;;;;;;0.00;0.00;;;;;-0.93;100.00;101584.50;4964803;28;47310;-86
2024/01/19 01:35:10;;;;;;;;;0.00;0.00;;;;;-0.91;100.00;101584.53;4963321;28;57835;-86
2024/01/19 01:37:51;;;;;;;;;0.00;0.00;;;;;-0.99;100.00;101576.63;4980123;28;45335;-86
2024/01/19 01:40:34;;;;;;;;;;;;;;;;;;;;;
2024/01/19 01:43:02;;;;;;;;;0.00;0.00;;;;;-1.05;100.00;101579.88;4975529;28;76160;-86
2024/01/19 01:45:30;;;;;;;;;0.00;0.00;;;;;-1.08;100.00;101584.88;4963510;28;45520;-87
2024/01/19 01:47:56;;;;;;;;;0.00;0.00;;;;;-1.00;100.00;101582.59;4997405;28;45346;-86
2024/01/19 01:50:22;;;;;;;;;0.00;0.00;;;;;-1.02;100.00;101591.88;4962521;28;45429;-86
2024/01/19 01:52:54;;;;;;;;;0.00;0.00;;;;;-1.05;100.00;101591.78;4943740;28;48412;-86
2024/01/19 01:55:29;;;;;;;;;;;;;;;;;;;;;
2024/01/19 01:57:57;;;;;;;;;0.00;0.00;;;;;-1.19;100.00;101584.53;4957617;28;69324;-86
2024/01/19 02:00:23;;;;;;;;;25.00;25.00;;;;;-1.08;100.00;101602.75;4944427;28;45472;-86
2024/01/19 02:02:52;;;;;;;;;0.00;0.00;;;;;-1.01;100.00;101611.50;4960088;28;46223;-86
2024/01/19 02:05:19;;;;;;;;;0.00;0.00;;;;;-1.16;100.00;101593.97;4944453;28;45936;-86
2024/01/19 02:07:52;;;;;;;;;0.00;0.00;;;;;-1.11;100.00;101600.13;4960126;28;45472;-86
2024/01/19 02:10:17;;;;;;;;;0.00;0.00;;;;;-1.09;100.00;101605.28;4945104;28;45412;-87
2024/01/19 02:12:43;;;;;;;;;0.00;0.00;;;;;-0.99;100.00;101620.09;4960082;28;45501;-86
2024/01/19 02:15:18;;;;;;;;;0.00;0.00;;;;;-1.00;100.00;101615.81;4943626;28;59232;-86
2024/01/19 02:17:56;;;;;;;;;;;;;;;;;;;;;
2024/01/19 02:20:24;;;;;;;;;3.00;3.00;;;;;-1.21;100.00;101591.28;4977738;28;69753;-86
2024/01/19 02:23:00;;;;;;;;;0.00;0.00;;;;;-1.13;100.00;101604.31;4979432;28;47021;-86
2024/01/19 02:25:27;;;;;;;;;0.00;0.00;;;;;-1.10;100.00;101604.41;4981255;28;45256;-86
2024/01/19 02:27:55;;;;;;;;;0.00;0.00;;;;;-1.12;100.00;101607.72;4979654;28;45392;-86
2024/01/19 02:30:30;;;;;;;;;;;;;;;;;;;;;
2024/01/19 02:32:56;;;;;;;;;0.00;0.00;;;;;-1.08;100.00;101620.63;4977133;28;76215;-86
2024/01/19 02:35:22;;;;;;;;;0.00;0.00;;;;;-1.11;100.00;101620.56;4962701;28;45311;-86
2024/01/19 02:37:47;;;;;;;;;0.00;0.00;;;;;-1.09;100.00;101631.69;4979544;28;45284;-86
2024/01/19 02:40:15;;;;;;;;;0.00;0.00;;;;;-1.13;100.00;101631.53;4962959;28;45363;-86
2024/01/19 02:42:43;;;;;;;;;0.00;0.00;;;;;-1.17;100.00;101626.34;4963271;28;48019;-86
2024/01/19 02:45:11;;;;;;;;;0.00;0.00;;;;;-1.25;100.00;101612.41;4979438;28;45343;-86
2024/01/19 02:47:37;;;;;;;;;0.00;0.00;;;;;-1.15;100.00;101640.84;4979796;28;45487;-86
2024/01/19 02:50:06;;;;;;;;;0.00;0.00;;;;;-1.17;100.00;101634.00;4964121;28;45419;-86
2024/01/19 02:52:33;;;;;;;;;0.00;0.00;;;;;-1.11;100.00;101643.56;4959371;28;48125;-86
2024/01/19 02:54:59;;;;;;;;;0.00;0.00;;;;;-1.19;100.00;101627.09;4959674;28;45468;-87
2024/01/19 02:57:25;;;;;;;;;0.00;0.00;;;;;-1.08;100.00;101638.53;4962165;28;45654;-86
2024/01/19 02:59:50;;;;;;;;;0.00;0.00;;;;;-1.10;100.00;101644.41;4962973;28;45401;-86
2024/01/19 03:02:33;;;;;;;;;0.00;0.00;;;;;-1.21;100.00;101631.28;4962711;28;47982;-86
2024/01/19 03:04:58;;;;;;;;;0.00;0.00;;;;;-1.11;100.00;101640.16;4962849;28;46148;-86
2024/01/19 03:07:24;;;;;;;;;0.00;0.00;;;;;-1.24;100.00;101609.06;4946845;28;45467;-86
2024/01/19 03:09:49;;;;;;;;;0.00;0.00;;;;;-1.18;100.00;101621.16;4946613;28;45530;-86
2024/01/19 03:12:14;;;;;;;;;0.00;0.00;;;;;-1.13;100.00;101634.97;4962657;28;47038;-86
2024/01/19 03:14:40;;;;;;;;;0.00;0.00;;;;;-1.14;100.00;101637.47;4962547;28;45404;-86
2024/01/19 03:17:07;;;;;;;;;0.00;0.00;;;;;-1.14;100.00;101642.59;4962815;28;45636;-86
2024/01/19 03:19:35;;;;;;;;;0.00;0.00;;;;;-1.13;100.00;101640.09;4962756;28;45538;-84
2024/01/19 03:22:00;;;;;;;;;0.00;0.00;;;;;-1.24;100.00;101624.41;4946450;28;47431;-86
2024/01/19 03:24:28;;;;;;;;;0.00;0.00;;;;;-1.12;100.00;101649.47;4946161;28;45754;-86
2024/01/19 03:26:53;;;;;;;;;0.00;0.00;;;;;-1.12;100.00;101648.63;4962958;28;45563;-86
2024/01/19 03:29:22;;;;;;;;;0.00;0.00;;;;;-1.26;100.00;101625.16;4946370;28;45697;-86
2024/01/19 03:31:50;;;;;;;;;0.00;0.00;;;;;-1.22;100.00;101639.78;4979803;28;46178;-86
2024/01/19 03:34:15;;;;;;;;;0.00;0.00;;;;;-1.29;100.00;101630.16;4961909;28;45263;-86
2024/01/19 03:36:41;;;;;;;;;0.00;0.00;;;;;-1.22;100.00;101653.41;4946056;28;45531;-86
2024/01/19 03:39:06;;;;;;;;;0.00;0.00;;;;;-1.23;100.00;101656.75;4946327;28;45245;-86
2024/01/19 03:41:34;;;;;;;;;6.00;6.00;;;;;-1.28;100.00;101649.75;4946137;28;47094;-86
2024/01/19 03:43:59;;;;;;;;;0.00;0.00;;;;;-1.34;100.00;101657.22;4962740;28;45388;-86
2024/01/19 03:46:25;;;;;;;;;0.00;0.00;;;;;-1.34;100.00;101662.34;4962398;28;45345;-86
2024/01/19 03:48:53;;;;;;;;;0.00;0.00;;;;;-1.30;100.00;101662.50;4969060;28;45435;-86
2024/01/19 03:51:18;;;;;;;;;0.00;0.00;;;;;-1.28;100.00;101673.66;4998995;28;47264;-86
2024/01/19 03:53:44;;;;;;;;;0.00;0.00;;;;;-1.24;100.00;101672.06;4997933;28;45301;-85
2024/01/19 03:56:10;;;;;;;;;0.00;0.00;;;;;-1.34;100.00;101663.19;4997953;28;45291;-86
2024/01/19 03:58:35;;;;;;;;;0.00;0.00;;;;;-1.27;100.00;101690.69;4998053;28;45306;-86
2024/01/19 04:01:00;;;;;;;;;0.00;0.00;;;;;-1.34;100.00;101675.09;4997807;28;46969;-86
2024/01/19 04:03:26;;;;;;;;;0.00;0.00;;;;;-1.42;100.00;101662.94;4997701;28;45218;-86
2024/01/19 04:05:51;;;;;;;;;0.00;0.00;;;;;-1.22;100.00;101694.28;4981548;28;45783;-86
2024/01/19 04:08:17;;;;;;;;;0.00;0.00;;;;;-1.29;100.00;101687.22;4997582;28;45385;-86
2024/01/19 04:10:42;;;;;;;;;0.00;0.00;;;;;-1.32;100.00;101683.69;4997959;28;46139;-86
2024/01/19 04:13:07;;;;;;;;;0.00;0.00;;;;;-1.35;100.00;101699.78;4997588;28;45361;-86
2024/01/19 04:15:35;;;;;;;;;0.00;0.00;;;;;-1.44;100.00;101690.09;4997669;28;45347;-86
2024/01/19 04:18:01;;;;;;;;;0.00;0.00;;;;;-1.41;100.00;101699.56;4981084;28;45309;-85
2024/01/19 04:20:26;;;;;;;;;0.00;0.00;;;;;-1.46;100.00;101696.00;5006000;28;46233;-86
2024/01/19 04:22:51;;;;;;;;;0.00;0.00;;;;;-1.45;100.00;101706.25;4964801;28;45247;-85
2024/01/19 04:25:17;;;;;;;;;0.00;0.00;;;;;-1.51;100.00;101694.94;4964709;28;45454;-85
2024/01/19 04:27:42;;;;;;;;;0.00;0.00;;;;;-1.56;100.00;101687.09;4998637;28;45284;-86
2024/01/19 04:30:08;;;;;;;;;0.00;0.00;;;;;-1.47;100.00;101697.66;4964685;28;46947;-86
2024/01/19 04:32:33;;;;;;;;;0.00;0.00;;;;;-1.40;100.00;101706.41;4964389;28;45446;-86
2024/01/19 04:35:03;;;;;;;;;2.25;2.25;;;;;-1.44;100.00;101702.88;4980916;28;45519;-86
2024/01/19 04:37:29;;;;;;;;;0.00;0.00;;;;;-1.46;100.00;101701.97;4964957;28;45420;-86
2024/01/19 04:40:14;;;;;;;;;0.00;0.00;;;;;-1.50;100.00;101700.13;4964594;28;47050;-85
2024/01/19 04:42:49;;;;;;;;;;;;;;;;;;;;;
2024/01/19 04:45:22;;;;;;;;;0.00;0.00;;;;;-1.50;100.00;101706.91;4981595;28;67614;-86
2024/01/19 04:47:48;;;;;;;;;0.00;0.00;;;;;-1.48;100.00;101715.50;4981300;28;45470;-85
2024/01/19 04:50:13;;;;;;;;;0.00;0.00;;;;;-1.60;100.00;101705.69;4981334;28;46130;-86
2024/01/19 04:52:39;;;;;;;;;0.00;0.00;;;;;-1.67;100.00;101698.63;4945119;28;45841;-86
2024/01/19 04:55:04;;;;;;;;;0.00;0.00;;;;;-1.66;100.00;101706.34;4944857;28;45760;-86
2024/01/19 04:57:30;;;;;;;;;0.00;0.00;;;;;-1.73;100.00;101700.97;4961306;28;45456;-85
2024/01/19 04:59:55;;;;;;;;;0.00;0.00;;;;;-1.66;100.00;101720.78;4978153;28;47005;-85
2024/01/19 05:02:22;;;;;;;;;0.00;0.00;;;;;-1.60;100.00;101739.78;4944650;28;45335;-85
2024/01/19 05:04:48;;;;;;;;;0.00;0.00;;;;;-1.63;100.00;101731.13;4945284;28;45578;-85
2024/01/19 05:07:13;;;;;;;;;0.00;0.00;;;;;-1.59;100.00;101741.50;4978108;28;45367;-85
2024/01/19 05:09:39;;;;;;;;;0.00;0.00;;;;;-1.55;100.00;101750.16;4944739;28;48193;-85
2024/01/19 05:12:04;;;;;;;;;0.00;0.00;;;;;-1.50;100.00;101766.50;4960803;28;45231;-85
2024/01/19 05:14:30;;;;;;;;;0.00;0.00;;;;;-1.56;100.00;101758.59;4977758;28;45442;-85
2024/01/19 05:16:55;;;;;;;;;0.00;0.00;;;;;-1.52;100.00;101768.16;4960733;28;45193;-85
2024/01/19 05:19:21;;;;;;;;;0.00;0.00;;;;;-1.57;100.00;101762.84;4959642;28;45499;-85
2024/01/19 05:21:49;;;;;;;;;0.00;0.00;;;;;-1.72;100.00;101746.97;4990969;28;45300;-85
2024/01/19 05:24:14;;;;;;;;;0.00;0.00;;;;;-1.67;100.00;101762.44;4982568;28;56545;-85
2024/01/19 05:26:44;;;;;;;;;0.00;0.00;;;;;-1.64;100.00;101772.78;4983251;28;45533;-85
2024/01/19 05:29:10;;;;;;;;;0.00;0.00;;;;;-1.57;100.00;101802.84;4999613;28;46403;-85
2024/01/19 05:31:35;;;;;;;;;3.00;3.00;;;;;-1.60;100.00;101797.59;4983004;28;45363;-85
2024/01/19 05:34:03;;;;;;;;;0.00;0.00;;;;;-1.68;100.00;101781.16;5017271;28;45476;-85
2024/01/19 05:36:31;;;;;;;;;0.00;0.00;;;;;-1.62;100.00;101794.13;4999810;28;45492;-85
2024/01/19 05:38:56;;;;;;;;;0.00;0.00;;;;;-1.74;100.00;101774.13;4999593;28;46508;-85
2024/01/19 05:41:29;;;;;;;;;4.00;4.00;;;;;-1.69;100.00;101782.84;4999368;28;45406;-85
2024/01/19 05:43:54;;;;;;;;;0.00;0.00;;;;;-1.74;100.00;101784.34;5000289;28;45505;-85
2024/01/19 05:46:19;;;;;;;;;0.00;0.00;;;;;-1.69;100.00;101807.47;4999485;28;45359;-85
2024/01/19 05:48:45;;;;;;;;;0.00;0.00;;;;;-1.73;100.00;101790.31;5011985;28;45286;-85
2024/01/19 05:51:14;;;;;;;;;0.00;0.00;;;;;-1.65;100.00;101805.09;4963245;28;45917;-85
2024/01/19 05:53:40;;;;;;;;;0.00;0.00;;;;;-1.69;100.00;101797.25;4997038;28;45312;-85
2024/01/19 05:56:05;;;;;;;;;0.00;0.00;;;;;-1.63;100.00;101818.81;4979783;28;45344;-85
2024/01/19 05:58:31;;;;;;;;;0.00;0.00;;;;;-1.70;100.00;101791.28;4996616;28;46142;-85
2024/01/19 06:00:56;;;;;;;;;0.00;0.00;;;;;-1.72;100.00;101794.63;4979344;28;45327;-85
2024/01/19 06:03:22;;;;;;;;;0.00;0.00;;;;;-1.73;100.00;101795.41;4979540;28;45360;-85
2024/01/19 06:05:47;;;;;;;;;0.00;0.00;;;;;-1.66;100.00;101794.84;4997192;28;45467;-85
2024/01/19 06:08:12;;;;;;;;;0.00;0.00;;;;;-1.74;100.00;101796.25;4962967;28;47964;-85
2024/01/19 06:10:38;;;;;;;;;0.00;0.00;;;;;-1.64;100.00;101814.50;4963045;28;45315;-85
2024/01/19 06:13:03;;;;;;;;;0.00;0.00;;;;;-1.71;100.00;101806.53;4962666;28;45410;-85
2024/01/19 06:15:28;;;;;;;;;0.00;0.00;;;;;-1.74;100.00;101816.66;4996964;28;45499;-85
2024/01/19 06:17:54;;;;;;;;;0.00;0.00;;;;;-1.73;100.00;101823.50;4963335;28;47086;-91
2024/01/19 06:20:20;;;;;;;;;0.00;0.00;;;;;-1.68;100.00;101838.16;4976837;28;52825;-91
2024/01/19 06:22:45;;;;;;;;;0.00;0.00;;;;;-1.78;100.00;101816.53;4946133;28;46800;-95
2024/01/19 06:25:11;;;;;;;;;0.00;0.00;;;;;-1.76;100.00;101827.66;4944826;28;45310;-91
2024/01/19 06:27:36;;;;;;;;;0.00;0.00;;;;;-1.79;100.00;101827.53;4945177;28;47051;-94
2024/01/19 06:30:02;;;;;;;;;0.00;0.00;;;;;-1.77;100.00;101841.22;4960891;28;45387;-92
2024/01/19 06:32:29;;;;;;;;;0.00;0.00;;;;;-1.90;100.00;101828.81;4980488;28;45346;-90
2024/01/19 06:34:55;;;;;;;;;0.00;0.00;;;;;-1.76;100.00;101863.41;4948529;28;45777;-90
2024/01/19 06:37:20;;;;;;;;;0.00;0.00;;;;;-1.79;100.00;101855.63;4979625;28;48347;-89
2024/01/19 06:39:46;;;;;;;;;17.50;15.00;;;;;-1.85;100.00;101860.50;4952245;28;74057;-92
2024/01/19 06:42:12;;;;;;;;;0.00;0.00;;;;;-1.80;100.00;101870.88;4978805;28;45304;-92
2024/01/19 06:44:41;;;;;;;;;0.00;0.00;;;;;-1.79;100.00;101885.38;4983757;28;45291;-94
2024/01/19 06:47:07;;;;;;;;;0.00;0.00;;;;;-1.85;100.00;101877.50;4962213;28;47578;-91
2024/01/19 06:49:32;;;;;;;;;0.00;0.00;;;;;-1.87;100.00;101879.97;4996924;28;55295;-92
2024/01/19 06:51:59;;;;;;;;;0.00;0.00;;;;;-1.91;100.00;101870.47;4977734;28;45408;-93
2024/01/19 06:54:24;;;;;;;;;0.00;0.00;;;;;-1.91;100.00;101873.00;4971514;28;45262;-93
2024/01/19 06:56:50;;;;;;;;;0.00;0.00;;;;;-1.89;100.00;101888.41;4963811;28;45379;-92
2024/01/19 06:59:15;;;;;;;;;0.00;0.00;;;;;-1.90;100.00;101889.19;4957992;28;46422;-88
2024/01/19 07:01:40;;;;;;;;;0.00;0.00;;;;;-1.95;100.00;101888.97;4998166;28;54174;-90
2024/01/19 07:04:06;;;;;;;;;0.00;0.00;;;;;-1.91;100.00;101892.53;4982417;28;45276;-90
2024/01/19 07:06:32;;;;;;;;;0.00;0.00;;;;;-1.88;100.00;101900.31;4947738;28;48081;-90
2024/01/19 07:08:58;;;;;;;;;0.00;0.00;;;;;-1.97;100.00;101894.06;4950562;28;45057;-92
2024/01/19 07:11:42;;;;;;;;;;;;;;;;;;;;;
2024/01/19 07:14:08;;;;;;;;;0.00;0.00;;;;;-1.93;100.00;101905.25;4964226;28;71086;-90
2024/01/19 07:16:51;;;;;;;;;0.00;0.00;;;;;-2.01;100.00;101897.25;4963496;28;45461;-92
2024/01/19 07:19:17;;;;;;;;;0.00;0.00;;;;;-2.08;100.00;101899.50;4996005;28;45421;-93
2024/01/19 07:21:43;;;;;;;;;0.00;0.00;;;;;-2.02;100.00;101899.78;4968643;28;45316;-93
2024/01/19 07:24:09;;;;;;;;;0.00;0.00;;;;;-1.96;100.00;101912.78;4948100;28;45317;-92
2024/01/19 07:26:40;;;;;;;;;0.00;0.00;;;;;-2.01;100.00;101904.06;4979174;28;47074;-92
2024/01/19 07:29:09;;;;;;;;;0.00;0.00;;;;;-1.99;100.00;101907.53;4979408;28;45282;-92
2024/01/19 07:31:47;;;;;;;;;;;;;;;;;;;;;
2024/01/19 07:34:14;;;;;;;;;0.00;0.00;;;;;-2.00;100.00;101923.66;4980454;28;71322;-93
2024/01/19 07:36:44;;;;;;;;;0.00;0.00;;;;;-2.13;100.00;101906.97;4975751;28;47129;-94
2024/01/19 07:39:10;;;;;;;;;0.00;0.00;;;;;-2.06;100.00;101918.28;4974602;28;45378;-93
2024/01/19 07:41:40;;;;;;;;;0.00;0.00;;;;;-2.02;100.00;101933.81;4953277;28;57267;-92
2024/01/19 07:44:06;;;;;;;;;0.00;0.00;;;;;-2.01;100.00;101932.13;4969120;28;45013;-92
2024/01/19 07:46:31;;;;;;;;;0.00;0.00;;;;;-2.09;100.00;101924.16;4976208;28;47219;-92
2024/01/19 07:48:57;;;;;;;;;0.00;0.00;;;;;-2.01;100.00;101940.63;4949288;28;45998;-93
2024/01/19 07:51:24;;;;;;;;;0.00;0.00;;;;;-1.97;100.00;101952.75;4954350;28;45305;-92
2024/01/19 07:53:53;;;;;;;;;0.00;0.00;;;;;-2.03;100.00;101938.84;4980349;28;46168;-89
2024/01/19 07:56:18;;;;;;;;;0.00;0.00;;;;;-2.00;100.00;101936.44;4982246;28;46451;-92
2024/01/19 07:58:44;;;;;;;;;0.00;0.00;;;;;-1.99;100.00;101943.25;4965863;28;45455;-90
2024/01/19 08:01:10;;;;;;;;;0.00;0.00;;;;;-1.92;100.00;101955.47;4965662;28;45293;-92
2024/01/19 08:03:42;;;;;;;;;0.00;0.00;;;;;-1.92;100.00;101964.81;4966404;28;45758;-93
2024/01/19 08:06:08;;;;;;;;;0.00;0.00;;;;;-1.93;100.00;101960.50;4963597;28;46704;-93
2024/01/19 08:08:43;;;;;;;;;;;;;;;;;;;;;
2024/01/19 08:11:16;;;;;;;;;0.00;0.00;;;;;-1.98;100.00;101953.53;4922575;28;69936;-92
2024/01/19 08:13:41;;;;;;;;;0.00;0.00;;;;;-1.93;100.00;101969.06;5002820;28;45303;-93
2024/01/19 08:16:09;;;;;;;;;0.00;0.00;;;;;-1.89;100.00;101972.63;5001691;28;46364;-92
2024/01/19 08:18:35;;;;;;;;;0.00;0.00;;;;;-1.94;100.00;101964.75;5001200;28;45211;-91
2024/01/19 08:21:06;;;;;;;;;2.50;2.50;;;;;-1.87;100.00;101989.72;4964222;28;45732;-91
2024/01/19 08:23:35;;;;;;;;;0.00;0.00;;;;;-1.84;100.00;101981.31;4959323;28;45483;-92
2024/01/19 08:26:03;;;;;;;;;0.00;0.00;;;;;-1.83;100.00;101981.38;4958970;28;47251;-92
2024/01/19 08:28:32;;;;;;;;;0.00;0.00;;;;;-1.71;100.00;101993.78;4963048;28;45467;-92
2024/01/19 08:30:57;;;;;;;;;0.00;0.00;;;;;-1.69;100.00;102010.06;4959324;28;45331;-92
2024/01/19 08:33:26;;;;;;;;;0.00;0.00;;;;;-1.71;100.00;102005.66;4975648;28;45496;-91
2024/01/19 08:36:01;;;;;;;;;0.00;0.00;;;;;-1.67;100.00;102018.66;4962424;28;47172;-92
2024/01/19 08:38:30;;;;;;;;;0.00;0.00;;;;;-1.73;100.00;102004.75;4960492;28;45287;-91
2024/01/19 08:40:55;;;;;;;;;0.00;0.00;;;;;-1.61;100.00;102025.69;4960219;28;45342;-92
2024/01/19 08:43:21;;;;;;;;;0.00;0.00;;;;;-1.57;100.00;102027.56;4961238;28;45477;-92
2024/01/19 08:45:46;;;;;;;;;0.00;0.00;;;;;-1.60;100.00;102020.66;4961490;28;47751;-91
2024/01/19 08:48:12;;;;;;;;;0.00;0.00;;;;;-1.48;100.00;102039.84;4976606;28;45394;-90
2024/01/19 08:50:40;;;;;;;;;0.00;0.00;;;;;-1.55;100.00;102025.94;4978125;28;45624;-91
2024/01/19 08:53:09;;;;;;;;;0.00;0.00;;;;;-1.58;100.00;102023.25;4961968;28;45205;-91
2024/01/19 08:55:39;;;;;;;;;0.00;0.00;;;;;-1.53;100.00;102031.09;4951563;28;47310;-92
2024/01/19 08:58:04;;;;;;;;;2.25;2.25;;;;;-1.50;100.00;102036.34;4960145;28;45177;-91
2024/01/19 09:00:30;;;;;;;;;0.00;0.00;;;;;-1.51;100.00;102032.03;4958353;28;45388;-92
2024/01/19 09:02:59;;;;;;;;;0.00;0.00;;;;;-1.41;100.00;102042.69;4977254;28;45192;-91
2024/01/19 09:05:33;;;;;;;;;0.00;0.00;;;;;-1.42;100.00;102037.53;4964663;28;45423;-90
2024/01/19 09:08:00;;;;;;;;;4.00;4.00;;;;;-1.29;100.00;102059.34;4962599;28;45490;-90
2024/01/19 09:10:32;;;;;;;;;0.00;0.00;;;;;-1.28;100.00;102053.41;4958999;28;45389;-91
2024/01/19 09:13:07;;;;;;;;;0.00;0.00;;;;;-1.17;100.00;102058.16;4959512;28;45152;-91
2024/01/19 09:15:42;;;;;;;;;;;;;;;;;;;;;
2024/01/19 09:18:08;;;;;;;;;0.00;0.00;;;;;-1.11;100.00;102052.41;4958006;28;72445;-91
2024/01/19 09:20:41;;;;;;;;;0.00;0.00;;;;;-1.01;100.00;102068.97;4956278;28;48865;-90
2024/01/19 09:23:06;;;;;;;;;0.00;0.00;;;;;-0.89;100.00;102078.81;4957960;28;45499;-90
2024/01/19 09:25:34;;;;;;;;;0.00;0.00;;;;;-0.83;100.00;102081.63;4964481;28;48117;-90
2024/01/19 09:28:02;;;;;;;;;0.00;0.00;;;;;-0.87;100.00;102069.53;4961675;28;45358;-90
2024/01/19 09:30:42;;;;;;;;;;;;;;;;;;;;;
2024/01/19 09:33:16;;;;;;;;;10.50;10.50;;;;;-0.69;100.00;102079.59;4966995;28;70343;-91
2024/01/19 09:35:42;;;;;;;;;0.00;0.00;;;;;-0.65;100.00;102082.34;4975156;28;47982;-90
2024/01/19 09:38:11;;;;;;;;;0.00;0.00;;;;;-0.50;100.00;102099.97;4958048;28;45390;-91
2024/01/19 09:40:49;;;;;;;;;;;;;;;;;;;;;
2024/01/19 09:43:15;;;;;;;;;0.00;0.00;;;;;-0.47;100.00;102094.09;4996487;28;70020;-90
2024/01/19 09:45:41;;;;;;;;;0.00;0.00;;;;;-0.40;100.00;102096.06;4960171;28;48269;-90
2024/01/19 09:48:27;;;;;;;;;0.00;0.00;;;;;-0.25;100.00;102106.88;4958086;28;45301;-90
2024/01/19 09:51:03;;;;;;;;;0.00;0.00;;;;;-0.28;100.00;102098.19;4965192;28;45313;-90
2024/01/19 09:56:23;;;;;;;;;0.00;0.00;;;;;-0.08;100.00;102115.16;4962659;28;46729;-90
2024/01/19 09:59:04;;;;;;;;;;;;;;;;;;;;;
2024/01/19 10:01:35;;;;;;;;;0.00;0.00;;;;;0.04;100.00;102116.44;4960391;28;68946;-90
2024/01/19 10:04:12;;;;;;;;;0.00;0.00;;;;;0.12;100.00;102128.69;4957813;28;45580;-90
2024/01/19 10:06:37;;;;;;;;;0.00;0.00;;;;;0.09;100.00;102120.03;4985165;28;45464;-90
2024/01/19 10:09:10;;;;;;;;;0.00;0.00;;;;;0.21;100.00;102143.53;4977044;28;45367;-90
2024/01/19 10:11:35;;;;;;;;;0.00;0.00;;;;;0.23;100.00;102135.91;4959821;28;45330;-90
2024/01/19 10:14:03;;;;;;;;;0.00;0.00;;;;;0.33;100.00;102140.53;4957409;28;45765;-90
2024/01/19 10:16:36;;;;;;;;;0.00;0.00;;;;;0.36;100.00;102122.72;4957767;28;45704;-89
2024/01/19 10:19:04;;;;;;;;;3.00;3.00;;;;;0.44;100.00;102138.34;4942380;28;45458;-90
2024/01/19 10:21:30;;;;;;;;;0.00;0.00;;;;;0.45;100.00;102129.88;4971428;28;45279;-90
2024/01/19 10:24:18;;;;;;;;;0.00;0.00;;;;;0.64;100.00;102150.16;4980063;28;45605;-90
2024/01/19 10:26:55;;;;;;;;;0.00;0.00;;;;;0.58;100.00;102134.59;4961777;28;47693;-90
2024/01/19 10:29:31;;;;;;;;;;;;;;;;;;;;;
2024/01/19 10:32:06;;;;;;;;;;;;;;;;;;;;;
2024/01/19 10:34:37;;;;;;;;;0.00;0.00;;;;;0.80;100.00;102148.13;4961467;28;69263;-90
2024/01/19 10:37:20;;;;;;;;;0.00;0.00;;;;;0.89;100.00;102143.31;4944510;28;47194;-90
2024/01/19 10:39:45;;;;;;;;;0.00;0.00;;;;;0.90;100.00;102143.34;4961093;28;45716;-90
2024/01/19 10:42:14;;;;;;;;;0.00;0.00;;;;;1.05;100.00;102149.81;4961150;28;45412;-89
2024/01/19 10:44:39;;;;;;;;;0.00;0.00;;;;;1.08;100.00;102140.53;4964372;28;45519;-90
2024/01/19 10:47:07;;;;;;;;;0.00;0.00;;;;;1.16;100.00;102139.06;4997429;28;46326;-90
2024/01/19 10:49:40;;;;;;;;;0.00;0.00;;;;;1.21;100.00;102139.25;4960504;28;45457;-89
2024/01/19 10:52:21;;;;;;;;;;;;;;;;;;;;;
2024/01/19 10:54:49;;;;;;;;;0.00;0.00;;;;;1.53;100.00;102145.38;4964493;28;69134;-92
2024/01/19 10:57:14;;;;;;;;;0.00;0.00;;;;;1.64;100.00;102135.44;4961039;28;45577;-87
2024/01/19 10:59:39;;;;;;;;;0.00;0.00;;;;;1.85;100.00;102153.16;4959892;28;45435;-86
2024/01/19 11:02:05;;;;;;;;;0.00;0.00;;;;;2.03;100.00;102154.56;4977161;28;45378;-85
2024/01/19 11:04:32;;;;;;;;;1.00;1.00;;;;;2.16;100.00;102156.63;4958093;28;66319;-88
2024/01/19 11:06:58;;;;;;;;;0.00;0.00;;;;;2.28;100.00;102133.84;4961641;28;48046;-86
2024/01/19 11:09:23;;;;;;;;;0.00;0.00;;;;;2.43;100.00;102141.09;4978553;28;45710;-86
2024/01/19 11:11:57;;;;;;;;;21.00;20.00;;;;;2.72;100.00;102143.59;4977874;28;45329;-86
2024/01/19 11:14:25;;;;;;;;;0.00;0.00;;;;;2.96;100.00;102140.75;4975032;28;45348;-86
2024/01/19 11:16:53;;;;;;;;;0.00;0.00;;;;;3.24;100.00;102154.31;4995737;28;45536;-85
2024/01/19 11:19:20;;;;;;;;;0.00;0.00;;;;;3.56;100.00;102143.88;4983540;28;45346;-86
2024/01/19 11:21:45;;;;;;;;;0.00;0.00;;;;;5.73;100.00;102137.47;4962405;28;45390;-86
2024/01/19 11:24:14;;;;;;;;;0.00;0.00;;;;;8.87;100.00;102147.53;4948591;28;45389;-85
2024/01/19 11:26:47;;;;;;;;;1.00;1.00;;;;;11.38;100.00;102134.25;4973400;28;47087;-88
2024/01/19 11:29:25;;;;;;;;;0.00;0.00;;;;;13.43;100.00;102157.59;4945580;28;45551;-88
2024/01/19 11:31:54;;;;;;;;;19.00;19.00;;;;;14.46;100.00;102158.09;4962789;28;45200;-90
2024/01/19 11:37:51;;;;;;;;;4.00;4.00;;;;;15.98;100.00;102156.03;4882639;29;46641;-90
2024/01/19 11:40:29;;;;;;;;;0.00;0.00;;;;;16.69;100.00;102172.25;4866889;29;45859;-90
2024/01/19 11:42:58;;;;;;;;;0.00;0.00;;;;;17.00;100.00;102166.06;4910177;28;45390;-89
2024/01/19 11:45:40;;;;;;;;;0.00;0.00;;;;;17.44;100.00;102165.44;4931677;28;45370;-90
2024/01/19 11:48:07;;;;;;;;;0.00;0.00;;;;;17.76;100.00;102157.25;4904025;28;47110;-87